Time;durP1;ratioP1;P1;durP2;ratioP2;P2;SDS_P1;SDS_P2;PMS_P1;PMS_P2;Temp;Humidity;BMP_temperature;BMP_pressure;BME280_temperature;BME280_humidity;BME280_pressure;Samples;Min_cycle;Max_cycle;Signal;HPM_P1;HPM_P2
2023/07/14 00:06:27;;;;;;;2.78;1.83;;;;;;;;;;20928680;28;20393;-64
2023/07/14 00:16:29;;;;;;;4.35;1.98;;;;;;;;;;20928253;28;20045;-65
2023/07/14 00:26:30;;;;;;;6.13;2.08;;;;;;;;;;20926148;28;20056;-65
2023/07/14 00:36:31;;;;;;;2.45;1.48;;;;;;;;;;20926324;28;20070;-65
2023/07/14 00:46:33;;;;;;;4.57;1.95;;;;;;;;;;20925898;28;20040;-66
2023/07/14 00:56:34;;;;;;;2.70;2.00;;;;;;;;;;20924036;28;20044;-66
2023/07/14 01:06:38;;;;;;;6.32;2.47;;;;;;;;;;20923529;28;20084;-66
2023/07/14 01:16:40;;;;;;;5.43;2.00;;;;;;;;;;20923604;28;20049;-65
2023/07/14 01:26:50;;;;;;;3.03;2.28;;;;;;;;;;20921572;28;20380;-66
2023/07/14 01:36:56;;;;;;;6.43;1.88;;;;;;;;;;20921979;28;20090;-66
2023/07/14 01:46:57;;;;;;;3.40;1.58;;;;;;;;;;20921206;28;20486;-65
2023/07/14 01:56:59;;;;;;;4.35;1.67;;;;;;;;;;20920441;28;20045;-65
2023/07/14 02:07:01;;;;;;;6.00;1.88;;;;;;;;;;20919490;28;20048;-65
2023/07/14 02:17:05;;;;;;;4.47;1.63;;;;;;;;;;20916391;28;20049;-66
2023/07/14 02:27:06;;;;;;;6.50;2.03;;;;;;;;;;20916429;28;20060;-65
2023/07/14 02:37:34;;;;;;;5.10;2.03;;;;;;;;;;20915815;28;20081;-65
2023/07/14 02:47:39;;;;;;;4.30;1.77;;;;;;;;;;20911891;28;20551;-65
2023/07/14 02:57:40;;;;;;;4.30;1.95;;;;;;;;;;20915479;28;20041;-64
2023/07/14 03:07:41;;;;;;;5.38;1.95;;;;;;;;;;20914716;28;20118;-65
2023/07/14 03:17:42;;;;;;;6.72;3.08;;;;;;;;;;20913845;28;20041;-65
2023/07/14 03:27:45;;;;;;;8.82;2.47;;;;;;;;;;20912518;28;20133;-65
2023/07/14 03:37:47;;;;;;;5.57;2.58;;;;;;;;;;20913517;28;20502;-66
2023/07/14 03:47:49;;;;;;;5.85;2.70;;;;;;;;;;20911967;28;20131;-65
2023/07/14 03:57:50;;;;;;;5.88;2.00;;;;;;;;;;20911840;28;20132;-66
2023/07/14 04:07:51;;;;;;;5.60;2.35;;;;;;;;;;20912330;28;20486;-65
2023/07/14 04:17:52;;;;;;;5.07;3.33;;;;;;;;;;20912087;28;20510;-66
2023/07/14 04:27:53;;;;;;;8.20;2.63;;;;;;;;;;20910172;28;20091;-66
2023/07/14 04:37:54;;;;;;;7.45;3.17;;;;;;;;;;20914373;28;20084;-65
2023/07/14 04:47:56;;;;;;;7.15;2.35;;;;;;;;;;20924368;28;20080;-65
2023/07/14 04:57:57;;;;;;;5.68;2.15;;;;;;;;;;20925269;28;20460;-65
2023/07/14 05:08:00;;;;;;;6.18;2.22;;;;;;;;;;20922839;28;20041;-65
2023/07/14 05:18:02;;;;;;;6.50;3.65;;;;;;;;;;20923567;28;20398;-65
2023/07/14 05:28:04;;;;;;;7.55;2.53;;;;;;;;;;20921136;28;20056;-65
2023/07/14 05:38:05;;;;;;;11.18;3.00;;;;;;;;;;20921782;28;20055;-64
2023/07/14 05:48:07;;;;;;;10.02;3.05;;;;;;;;;;20920488;28;20087;-64
2023/07/14 05:58:08;;;;;;;13.25;3.25;;;;;;;;;;20920065;28;20045;-64
2023/07/14 06:08:09;;;;;;;10.23;4.45;;;;;;;;;;20919154;28;20045;-64
2023/07/14 06:18:10;;;;;;;13.98;4.68;;;;;;;;;;20918237;28;20049;-64
2023/07/14 06:28:11;;;;;;;12.93;4.38;;;;;;;;;;20916211;28;20053;-63
2023/07/14 06:38:12;;;;;;;15.63;5.75;;;;;;;;;;20916790;28;20044;-64
2023/07/14 06:48:14;;;;;;;22.30;5.65;;;;;;;;;;20916193;28;20048;-63
2023/07/14 06:58:15;;;;;;;16.83;5.90;;;;;;;;;;20913805;28;20087;-64
2023/07/14 07:08:16;;;;;;;14.68;5.57;;;;;;;;;;20914774;28;20098;-65
2023/07/14 07:18:19;;;;;;;19.90;6.63;;;;;;;;;;20912840;28;20051;-65
2023/07/14 07:28:21;;;;;;;20.58;6.97;;;;;;;;;;20911212;28;20060;-66
2023/07/14 07:38:22;;;;;;;18.80;6.30;;;;;;;;;;20913276;28;20049;-66
2023/07/14 07:48:23;;;;;;;16.67;6.50;;;;;;;;;;20912621;28;20501;-64
2023/07/14 07:58:24;;;;;;;20.67;6.45;;;;;;;;;;20911250;28;20502;-64
2023/07/14 08:08:25;;;;;;;16.48;6.45;;;;;;;;;;20912310;28;20051;-65
2023/07/14 08:18:27;;;;;;;15.70;6.35;;;;;;;;;;20924061;28;20067;-65
2023/07/14 08:28:28;;;;;;;12.00;5.93;;;;;;;;;;20925874;28;20493;-64
2023/07/14 08:38:33;;;;;;;17.02;5.45;;;;;;;;;;20926549;28;20529;-65
2023/07/14 08:48:40;;;;;;;15.40;5.50;;;;;;;;;;20926434;28;20040;-64
2023/07/14 08:58:41;;;;;;;16.30;6.07;;;;;;;;;;20923710;28;20084;-65
2023/07/14 09:08:43;;;;;;;17.10;5.57;;;;;;;;;;20923516;28;20060;-66
2023/07/14 09:18:44;;;;;;;10.73;4.97;;;;;;;;;;20921707;28;20041;-66
2023/07/14 09:28:47;;;;;;;14.18;8.70;;;;;;;;;;20920427;28;20136;-65
2023/07/14 09:38:54;;;;;;;9.35;4.18;;;;;;;;;;20921630;28;20098;-65
2023/07/14 09:49:03;;;;;;;6.10;3.28;;;;;;;;;;20919369;28;20056;-66
2023/07/14 09:59:06;;;;;;;8.95;3.88;;;;;;;;;;20919957;28;20501;-66
2023/07/14 10:09:09;;;;;;;8.85;3.88;;;;;;;;;;20918717;28;20127;-65
2023/07/14 10:19:14;;;;;;;8.68;3.45;;;;;;;;;;20917957;28;20045;-66
2023/07/14 10:29:17;;;;;;;5.63;3.80;;;;;;;;;;20915458;28;20068;-65
2023/07/14 10:39:26;;;;;;;6.13;2.33;;;;;;;;;;20915454;28;20041;-66
2023/07/14 10:49:32;;;;;;;7.60;2.22;;;;;;;;;;20916003;28;20041;-66
2023/07/14 10:59:43;;;;;;;6.25;2.25;;;;;;;;;;20914791;28;20124;-66
2023/07/14 11:09:46;;;;;;;3.78;2.03;;;;;;;;;;20914073;28;20567;-65
2023/07/14 11:19:54;;;;;;;3.10;2.30;;;;;;;;;;20912628;28;20048;-65
2023/07/14 11:30:00;;;;;;;2.92;1.27;;;;;;;;;;20913196;28;20487;-65
2023/07/14 11:40:02;;;;;;;2.50;1.58;;;;;;;;;;20911777;28;20056;-65
2023/07/14 11:50:20;;;;;;;5.47;2.85;;;;;;;;;;20922344;28;20370;-65
2023/07/14 12:00:28;;;;;;;5.50;1.63;;;;;;;;;;20929832;28;20407;-65
2023/07/14 12:10:39;;;;;;;2.85;0.98;;;;;;;;;;20928328;28;20524;-65
2023/07/14 12:20:40;;;;;;;4.57;1.27;;;;;;;;;;20926411;28;20049;-65
2023/07/14 12:30:46;;;;;;;3.33;1.00;;;;;;;;;;20927291;28;20452;-66
2023/07/14 12:40:49;;;;;;;2.65;1.05;;;;;;;;;;20926000;28;20041;-67
2023/07/14 12:50:50;;;;;;;2.53;1.13;;;;;;;;;;20925357;28;20499;-67
2023/07/14 13:00:53;;;;;;;1.75;0.98;;;;;;;;;;20923708;28;20052;-68
2023/07/14 13:10:57;;;;;;;3.00;0.80;;;;;;;;;;20922411;28;20060;-67
2023/07/14 13:20:59;;;;;;;1.57;0.83;;;;;;;;;;20921167;28;20068;-67
2023/07/14 13:31:02;;;;;;;0.93;0.70;;;;;;;;;;20922283;28;20052;-67
2023/07/14 13:41:19;;;;;;;3.85;0.98;;;;;;;;;;20921322;28;20049;-67
2023/07/14 13:51:26;;;;;;;2.17;0.50;;;;;;;;;;20919476;28;20084;-65
2023/07/14 14:01:28;;;;;;;1.13;0.60;;;;;;;;;;20918587;28;20037;-66
2023/07/14 14:11:29;;;;;;;6.32;0.73;;;;;;;;;;20918995;28;20041;-64
2023/07/14 14:21:30;;;;;;;1.50;0.50;;;;;;;;;;20918005;28;20154;-64
2023/07/14 14:31:31;;;;;;;2.15;0.55;;;;;;;;;;20917199;28;20037;-63
2023/07/14 14:41:34;;;;;;;4.07;0.55;;;;;;;;;;20915550;28;20044;-64
2023/07/14 14:51:35;;;;;;;1.05;0.73;;;;;;;;;;20915349;28;20053;-64
2023/07/14 15:01:45;;;;;;;1.52;0.60;;;;;;;;;;20915362;28;20049;-64
2023/07/14 15:11:47;;;;;;;0.60;0.40;;;;;;;;;;20914918;28;20521;-64
2023/07/14 15:21:49;;;;;;;2.53;0.68;;;;;;;;;;20913258;28;20570;-64
2023/07/14 15:31:50;;;;;;;1.83;0.70;;;;;;;;;;20913430;28;20045;-64
2023/07/14 15:41:51;;;;;;;1.73;0.80;;;;;;;;;;20913572;28;20379;-68
2023/07/14 15:51:53;;;;;;;1.13;0.70;;;;;;;;;;20913097;28;20048;-68
2023/07/14 16:01:55;;;;;;;5.95;1.83;;;;;;;;;;20912443;28;20068;-66
2023/07/14 16:11:56;;;;;;;3.22;1.00;;;;;;;;;;20912034;28;20528;-75
2023/07/14 16:21:58;;;;;;;2.15;0.98;;;;;;;;;;20911222;28;20409;-68
2023/07/14 16:31:59;;;;;;;2.58;1.33;;;;;;;;;;20911308;28;20049;-73
2023/07/14 16:42:00;;;;;;;2.60;1.60;;;;;;;;;;20926589;28;20045;-75
2023/07/14 16:52:01;;;;;;;4.43;1.95;;;;;;;;;;20926129;28;20037;-71
2023/07/14 17:02:02;;;;;;;2.75;1.80;;;;;;;;;;20925472;28;20490;-67
2023/07/14 17:12:05;;;;;;;2.38;1.10;;;;;;;;;;20924684;28;20124;-68
2023/07/14 17:22:11;;;;;;;2.08;1.10;;;;;;;;;;20923273;28;20167;-71
2023/07/14 17:32:12;;;;;;;4.25;1.67;;;;;;;;;;20922921;28;20044;-74
2023/07/14 17:42:16;;;;;;;1.35;1.05;;;;;;;;;;20922246;28;20101;-72
2023/07/14 17:52:17;;;;;;;2.80;1.60;;;;;;;;;;20919799;28;20041;-67
2023/07/14 18:02:23;;;;;;;3.53;1.25;;;;;;;;;;20920429;28;20482;-73
2023/07/14 18:12:26;;;;;;;4.13;0.80;;;;;;;;;;20919066;28;20468;-68
2023/07/14 18:22:29;;;;;;;1.00;0.90;;;;;;;;;;20917871;28;20490;-72
2023/07/14 18:32:30;;;;;;;1.58;0.98;;;;;;;;;;20917994;28;20128;-70
2023/07/14 18:42:31;;;;;;;1.80;1.23;;;;;;;;;;20917186;28;20056;-70
2023/07/14 18:52:34;;;;;;;1.83;1.02;;;;;;;;;;20914826;28;20055;-70
2023/07/14 19:02:37;;;;;;;1.13;1.00;;;;;;;;;;20915776;28;20053;-71
2023/07/14 19:12:39;;;;;;;3.22;1.10;;;;;;;;;;20913631;28;20041;-70
2023/07/14 19:22:41;;;;;;;1.45;1.17;;;;;;;;;;20913155;28;20139;-70
2023/07/14 19:32:45;;;;;;;5.05;1.40;;;;;;;;;;20912982;28;20123;-70
2023/07/14 19:42:46;;;;;;;4.67;1.37;;;;;;;;;;20914167;28;20049;-70
2023/07/14 19:52:49;;;;;;;2.20;1.35;;;;;;;;;;20914087;28;20037;-70
2023/07/14 20:02:51;;;;;;;2.90;0.80;;;;;;;;;;20914107;28;20512;-70
2023/07/14 20:12:52;;;;;;;3.03;1.52;;;;;;;;;;20925756;28;20505;-69
2023/07/14 20:22:53;;;;;;;2.80;1.23;;;;;;;;;;20927222;28;20057;-69
2023/07/14 20:32:54;;;;;;;2.83;1.60;;;;;;;;;;20926095;28;20051;-70
2023/07/14 20:42:58;;;;;;;5.40;1.63;;;;;;;;;;20925380;28;20102;-71
2023/07/14 20:52:59;;;;;;;2.23;1.50;;;;;;;;;;20924098;28;20041;-70
2023/07/14 21:03:00;;;;;;;3.90;1.70;;;;;;;;;;20923331;28;20041;-71
2023/07/14 21:13:02;;;;;;;3.72;2.17;;;;;;;;;;20924205;28;20045;-70
2023/07/14 21:23:03;;;;;;;3.60;1.90;;;;;;;;;;20921999;28;20052;-70
2023/07/14 21:33:04;;;;;;;4.50;1.80;;;;;;;;;;20922911;28;20398;-71
2023/07/14 21:43:05;;;;;;;3.65;2.00;;;;;;;;;;20922217;28;20556;-70
2023/07/14 21:53:08;;;;;;;3.47;2.08;;;;;;;;;;20921569;28;20045;-71
2023/07/14 22:03:14;;;;;;;3.08;1.48;;;;;;;;;;20920936;28;20045;-71
2023/07/14 22:13:16;;;;;;;7.10;1.88;;;;;;;;;;20919874;28;20045;-70
2023/07/14 22:23:18;;;;;;;6.10;1.17;;;;;;;;;;20918848;28;20053;-70
2023/07/14 22:33:32;;;;;;;4.57;1.67;;;;;;;;;;20917194;28;20049;-70
2023/07/14 22:43:34;;;;;;;2.28;1.73;;;;;;;;;;20915708;28;20080;-70
2023/07/14 22:53:35;;;;;;;3.55;1.70;;;;;;;;;;20916847;28;20045;-71
2023/07/14 23:03:36;;;;;;;1.88;1.20;;;;;;;;;;20916061;28;20052;-70
2023/07/14 23:13:37;;;;;;;2.83;1.90;;;;;;;;;;20915544;28;20524;-70
2023/07/14 23:23:40;;;;;;;4.90;1.10;;;;;;;;;;20914211;28;20049;-71
2023/07/14 23:33:41;;;;;;;2.55;1.20;;;;;;;;;;20914381;28;20159;-70
2023/07/14 23:43:42;;;;;;;3.17;1.70;;;;;;;;;;20912335;28;20055;-70
2023/07/14 23:53:45;;;;;;;2.17;1.73;;;;;;;;;;20913640;28;20118;-71
